createdAt,value
2019-03-04T00:02:17.324Z,99.90
2019-03-04T00:04:45.787Z,99.90
2019-03-04T00:07:14.249Z,99.90
2019-03-04T00:09:43.373Z,99.90
2019-03-04T00:12:11.933Z,99.90
2019-03-04T00:14:40.456Z,99.90
2019-03-04T00:17:09.189Z,99.90
2019-03-04T00:19:37.696Z,99.90
2019-03-04T00:22:06.261Z,99.90
2019-03-04T00:24:34.719Z,99.90
2019-03-04T00:27:03.190Z,99.90
2019-03-04T00:29:31.652Z,99.90
2019-03-04T00:32:00.120Z,99.90
2019-03-04T00:34:28.653Z,99.90
2019-03-04T00:36:57.134Z,99.90
2019-03-04T00:39:25.598Z,99.90
2019-03-04T00:41:54.042Z,99.90
2019-03-04T00:44:22.494Z,99.90
2019-03-04T00:46:51.555Z,99.90
2019-03-04T00:49:20.082Z,99.90
2019-03-04T00:51:49.056Z,99.90
2019-03-04T00:54:17.968Z,99.90
2019-03-04T00:56:46.471Z,99.90
2019-03-04T00:59:15.007Z,99.90
2019-03-04T01:01:43.474Z,99.90
2019-03-04T01:04:12.140Z,99.90
2019-03-04T01:06:40.612Z,99.90
2019-03-04T01:09:11.080Z,99.90
2019-03-04T01:11:39.593Z,99.90
2019-03-04T01:14:08.056Z,99.90
2019-03-04T01:16:36.937Z,99.90
2019-03-04T01:19:05.395Z,99.90
2019-03-04T01:21:33.857Z,99.90
2019-03-04T01:24:02.324Z,99.90
2019-03-04T01:26:30.788Z,99.90
2019-03-04T01:28:59.267Z,99.90
2019-03-04T01:31:27.729Z,99.90
2019-03-04T01:33:56.190Z,99.90
2019-03-04T01:36:24.643Z,99.90
2019-03-04T01:38:53.145Z,99.90
2019-03-04T01:41:21.768Z,99.90
2019-03-04T01:43:50.253Z,99.90
2019-03-04T01:46:18.707Z,99.90
2019-03-04T01:48:47.210Z,99.90
2019-03-04T01:51:15.658Z,99.90
2019-03-04T01:53:44.245Z,99.90
2019-03-04T01:56:12.790Z,99.90
2019-03-04T01:58:41.256Z,99.90
2019-03-04T02:01:09.701Z,99.90
2019-03-04T02:03:45.884Z,99.90
2019-03-04T02:06:14.393Z,99.90
2019-03-04T02:08:42.846Z,99.90
2019-03-04T02:11:11.570Z,99.90
2019-03-04T02:13:40.014Z,99.90
2019-03-04T02:16:08.495Z,99.90
2019-03-04T02:18:37.038Z,99.90
2019-03-04T02:21:05.534Z,99.90
2019-03-04T02:23:34.017Z,99.90
2019-03-04T02:26:05.584Z,99.90
2019-03-04T02:28:34.158Z,99.90
2019-03-04T02:31:02.747Z,99.90
2019-03-04T02:33:31.220Z,99.90
2019-03-04T02:35:59.758Z,99.90
2019-03-04T02:38:28.203Z,99.90
2019-03-04T02:40:56.687Z,99.90
2019-03-04T02:43:25.135Z,99.90
2019-03-04T02:45:53.587Z,99.90
2019-03-04T02:48:22.172Z,99.90
2019-03-04T02:50:50.687Z,99.90
2019-03-04T02:53:19.219Z,99.90
2019-03-04T02:55:47.684Z,99.90
2019-03-04T02:58:16.137Z,99.90
2019-03-04T03:00:44.657Z,99.90
2019-03-04T03:03:13.240Z,99.90
2019-03-04T03:05:41.698Z,99.90
2019-03-04T03:08:10.151Z,99.90
2019-03-04T03:10:38.609Z,99.90
2019-03-04T03:13:07.196Z,99.90
2019-03-04T03:15:35.729Z,99.90
2019-03-04T03:18:04.276Z,99.90
2019-03-04T03:20:32.812Z,99.90
2019-03-04T03:23:01.350Z,99.90
2019-03-04T03:25:29.873Z,99.90
2019-03-04T03:27:58.341Z,99.90
2019-03-04T03:30:26.879Z,99.90
2019-03-04T03:32:55.416Z,99.90
2019-03-04T03:35:23.948Z,99.90
2019-03-04T03:37:52.474Z,99.90
2019-03-04T03:40:21.689Z,99.90
2019-03-04T03:42:50.222Z,99.90
2019-03-04T03:45:19.086Z,99.90
2019-03-04T03:47:47.697Z,99.90
2019-03-04T03:50:17.264Z,99.90
2019-03-04T03:52:46.331Z,99.90
2019-03-04T03:55:16.850Z,99.90
2019-03-04T03:57:45.480Z,99.90
2019-03-04T04:00:19.671Z,99.90
2019-03-04T04:02:48.333Z,99.90
2019-03-04T04:05:17.171Z,99.90
2019-03-04T04:07:45.771Z,99.90
2019-03-04T04:10:16.935Z,99.90
2019-03-04T04:12:45.555Z,99.90
2019-03-04T04:15:15.397Z,99.90
2019-03-04T04:17:43.844Z,99.90
2019-03-04T04:20:13.163Z,99.90
2019-03-04T04:22:41.703Z,99.90
2019-03-04T04:25:11.470Z,99.90
2019-03-04T04:27:39.993Z,99.90
2019-03-04T04:30:11.733Z,99.90
2019-03-04T04:32:40.606Z,99.90
2019-03-04T04:35:09.753Z,99.90
2019-03-04T04:37:38.373Z,99.90
2019-03-04T04:40:12.226Z,99.90
2019-03-04T04:42:40.738Z,99.90
2019-03-04T04:45:10.125Z,99.90
2019-03-04T04:47:40.128Z,99.90
2019-03-04T04:50:14.687Z,99.90
2019-03-04T04:52:43.226Z,99.90
2019-03-04T04:55:11.812Z,99.90
2019-03-04T04:57:40.387Z,99.90
2019-03-04T05:00:12.261Z,99.90
2019-03-04T05:02:40.810Z,99.90
2019-03-04T05:05:09.352Z,99.90
2019-03-04T05:07:37.912Z,99.90
2019-03-04T05:10:09.520Z,99.90
2019-03-04T05:12:37.963Z,99.90
2019-03-04T05:15:09.467Z,99.90
2019-03-04T05:17:39.836Z,99.90
2019-03-04T05:20:11.778Z,99.90
2019-03-04T05:22:41.034Z,99.90
2019-03-04T05:25:10.069Z,99.90
2019-03-04T05:27:38.777Z,99.90
2019-03-04T05:30:13.137Z,99.90
2019-03-04T05:32:41.596Z,99.90
2019-03-04T05:35:10.137Z,99.90
2019-03-04T05:37:38.688Z,99.90
2019-03-04T05:40:18.190Z,99.90
2019-03-04T05:42:47.219Z,99.90
2019-03-04T05:45:17.779Z,99.90
2019-03-04T05:47:46.404Z,99.90
2019-03-04T05:50:19.957Z,99.90
2019-03-04T05:52:48.482Z,99.90
2019-03-04T05:55:17.057Z,99.90
2019-03-04T05:57:45.516Z,99.90
2019-03-04T06:00:20.255Z,99.90
2019-03-04T06:02:50.291Z,99.90
2019-03-04T06:05:18.737Z,99.90
2019-03-04T06:07:51.723Z,99.90
2019-03-04T06:10:20.190Z,99.90
2019-03-04T06:12:48.646Z,99.90
2019-03-04T06:15:19.031Z,99.90
2019-03-04T06:17:47.473Z,99.90
2019-03-04T06:20:18.287Z,99.90
2019-03-04T06:22:46.874Z,99.90
2019-03-04T06:25:18.411Z,99.90
2019-03-04T06:27:46.972Z,99.90
2019-03-04T06:30:20.700Z,99.90
2019-03-04T06:32:49.253Z,99.90
2019-03-04T06:35:17.831Z,99.90
2019-03-04T06:37:46.360Z,99.90
2019-03-04T06:40:16.657Z,99.90
2019-03-04T06:42:45.394Z,99.90
2019-03-04T06:45:18.310Z,99.90
2019-03-04T06:47:46.843Z,99.90
2019-03-04T06:50:41.170Z,99.90
2019-03-04T06:53:09.636Z,99.90
2019-03-04T06:55:50.281Z,99.90
2019-03-04T06:58:18.812Z,99.90
2019-03-04T07:00:50.366Z,99.90
2019-03-04T07:03:20.341Z,99.90
2019-03-04T07:06:08.139Z,99.90
2019-03-04T07:08:39.659Z,99.90
2019-03-04T07:11:08.123Z,99.90
2019-03-04T07:13:36.649Z,99.90
2019-03-04T07:16:05.318Z,99.90
2019-03-04T07:18:33.846Z,99.90
2019-03-04T07:21:02.319Z,99.90
2019-03-04T07:23:30.886Z,99.90
2019-03-04T07:25:59.386Z,99.90
2019-03-04T07:28:27.839Z,99.90
2019-03-04T07:30:56.497Z,99.90
2019-03-04T07:33:24.959Z,99.90
2019-03-04T07:35:53.414Z,99.90
2019-03-04T07:38:24.940Z,99.90
2019-03-04T07:41:12.743Z,99.90
2019-03-04T07:43:41.208Z,99.90
2019-03-04T07:46:09.711Z,99.90
2019-03-04T07:48:38.174Z,99.90
2019-03-04T07:51:19.465Z,99.90
2019-03-04T07:53:47.996Z,99.90
2019-03-04T07:56:16.450Z,99.90
2019-03-04T07:58:44.991Z,99.90
2019-03-04T08:01:13.433Z,99.90
2019-03-04T08:03:41.920Z,99.90
2019-03-04T08:06:11.014Z,99.90
2019-03-04T08:08:41.877Z,99.90
2019-03-04T08:11:22.406Z,99.90
2019-03-04T08:13:56.944Z,99.90
2019-03-04T08:16:25.478Z,99.90
2019-03-04T08:18:53.934Z,99.90
2019-03-04T08:21:22.393Z,99.90
2019-03-04T08:23:50.885Z,99.90
2019-03-04T08:26:19.582Z,99.90
2019-03-04T08:28:48.040Z,99.90
2019-03-04T08:31:16.538Z,99.90
2019-03-04T08:33:44.996Z,99.90
2019-03-04T08:36:13.450Z,99.90
2019-03-04T08:38:41.953Z,99.90
2019-03-04T08:41:10.483Z,99.80
2019-03-04T08:43:38.942Z,99.70
2019-03-04T08:46:07.393Z,99.40
2019-03-04T08:48:35.841Z,99.00
2019-03-04T08:51:04.298Z,99.00
2019-03-04T08:53:32.749Z,99.00
2019-03-04T08:56:01.218Z,98.70
2019-03-04T08:58:29.771Z,98.60
2019-03-04T09:00:58.694Z,98.90
2019-03-04T09:03:27.172Z,98.60
2019-03-04T09:05:55.639Z,98.50
2019-03-04T09:08:24.161Z,98.20
2019-03-04T09:10:52.839Z,98.10
2019-03-04T09:13:21.296Z,98.30
2019-03-04T09:15:49.750Z,98.40
2019-03-04T09:18:18.241Z,98.20
2019-03-04T09:20:46.781Z,97.80
2019-03-04T09:23:15.235Z,97.60
2019-03-04T09:25:49.773Z,97.40
2019-03-04T09:28:18.228Z,97.70
2019-03-04T09:30:46.737Z,97.50
2019-03-04T09:33:15.269Z,97.40
2019-03-04T09:35:43.724Z,97.40
2019-03-04T09:38:12.206Z,97.30
2019-03-04T09:40:40.664Z,97.10
2019-03-04T09:43:09.124Z,96.80
2019-03-04T09:45:39.212Z,97.00
2019-03-04T09:48:08.051Z,96.90
2019-03-04T09:50:36.687Z,96.50
2019-03-04T09:53:05.243Z,96.50
2019-03-04T09:55:33.724Z,96.10
2019-03-04T09:58:02.253Z,96.20
2019-03-04T10:00:35.781Z,96.30
2019-03-04T10:03:19.289Z,95.60
2019-03-04T10:06:15.251Z,95.60
2019-03-04T10:08:52.964Z,96.00
2019-03-04T10:11:42.528Z,96.20
2019-03-04T10:14:48.701Z,96.10
2019-03-04T10:17:52.165Z,95.30
2019-03-04T10:20:44.972Z,95.20
2019-03-04T10:23:28.314Z,94.90
2019-03-04T10:26:08.511Z,94.60
2019-03-04T10:28:54.476Z,94.10
2019-03-04T10:32:01.024Z,93.70
2019-03-04T10:34:52.029Z,93.70
2019-03-04T10:37:38.720Z,93.40
2019-03-04T10:40:26.743Z,93.10
2019-03-04T10:43:38.070Z,92.20
2019-03-04T10:46:24.627Z,91.60
2019-03-04T10:48:53.116Z,91.60
2019-03-04T10:51:21.816Z,91.70
2019-03-04T10:53:50.355Z,91.50
2019-03-04T10:56:18.805Z,92.10
2019-03-04T10:58:47.533Z,91.80
2019-03-04T11:01:16.061Z,91.50
2019-03-04T11:03:44.527Z,91.60
2019-03-04T11:06:13.071Z,90.80
2019-03-04T11:08:41.617Z,90.50
2019-03-04T11:11:10.135Z,90.80
2019-03-04T11:13:38.884Z,90.60
2019-03-04T11:16:07.509Z,89.80
2019-03-04T11:18:36.036Z,89.40
2019-03-04T11:21:04.687Z,89.00
2019-03-04T11:23:33.665Z,89.00
2019-03-04T11:26:02.190Z,87.00
2019-03-04T11:28:30.726Z,87.10
2019-03-04T11:30:59.335Z,86.30
2019-03-04T11:33:28.141Z,86.10
2019-03-04T11:35:56.671Z,86.50
2019-03-04T11:38:34.266Z,87.00
2019-03-04T11:41:02.790Z,88.00
2019-03-04T11:43:31.246Z,86.10
2019-03-04T11:45:59.744Z,84.80
2019-03-04T11:48:28.203Z,84.20
2019-03-04T11:50:56.668Z,85.30
2019-03-04T11:53:25.150Z,84.20
2019-03-04T11:55:53.661Z,84.30
2019-03-04T11:58:22.167Z,84.00
2019-03-04T12:01:17.518Z,83.40
2019-03-04T12:03:46.110Z,84.40
2019-03-04T12:06:14.594Z,84.10
2019-03-04T12:08:43.051Z,84.20
2019-03-04T12:11:11.506Z,83.80
2019-03-04T12:13:39.968Z,81.80
2019-03-04T12:16:08.576Z,80.10
2019-03-04T12:18:37.385Z,77.60
2019-03-04T12:21:06.272Z,76.20
2019-03-04T12:23:34.739Z,74.40
2019-03-04T12:26:03.434Z,73.50
2019-03-04T12:28:31.981Z,72.70
2019-03-04T12:31:00.448Z,72.30
2019-03-04T12:33:28.965Z,72.10
2019-03-04T12:35:57.421Z,71.80
2019-03-04T12:38:25.951Z,70.30
2019-03-04T12:40:54.398Z,71.60
2019-03-04T12:43:22.885Z,70.90
2019-03-04T12:45:51.417Z,70.80
2019-03-04T12:48:20.090Z,71.30
2019-03-04T12:50:48.547Z,71.20
2019-03-04T12:53:16.989Z,71.90
2019-03-04T12:55:45.460Z,72.50
2019-03-04T12:58:13.917Z,72.70
2019-03-04T13:00:42.504Z,73.20
2019-03-04T13:03:16.535Z,73.70
2019-03-04T13:05:45.055Z,74.50
2019-03-04T13:08:13.518Z,75.20
2019-03-04T13:10:41.966Z,75.50
2019-03-04T13:13:10.570Z,75.80
2019-03-04T13:15:39.031Z,75.70
2019-03-04T13:18:09.803Z,75.50
2019-03-04T13:20:38.503Z,75.40
2019-03-04T13:23:07.471Z,75.40
2019-03-04T13:25:35.986Z,75.40
2019-03-04T13:28:08.530Z,75.40
2019-03-04T13:30:40.552Z,74.80
2019-03-04T13:33:09.614Z,73.70
2019-03-04T13:35:42.221Z,73.70
2019-03-04T13:38:10.946Z,73.00
2019-03-04T13:40:39.484Z,72.50
2019-03-04T13:43:08.383Z,72.80
2019-03-04T13:45:37.309Z,72.10
2019-03-04T13:48:06.035Z,72.30
2019-03-04T13:50:37.170Z,72.50
2019-03-04T13:53:06.215Z,73.00
2019-03-04T13:55:34.791Z,73.20
2019-03-04T13:58:03.388Z,73.00
2019-03-04T14:00:37.704Z,72.90
2019-03-04T14:03:06.677Z,72.80
2019-03-04T14:05:35.140Z,72.80
2019-03-04T14:08:03.725Z,72.60
2019-03-04T14:10:38.177Z,72.60
2019-03-04T14:13:06.708Z,72.70
2019-03-04T14:15:46.166Z,72.40
2019-03-04T14:18:14.747Z,71.50
2019-03-04T14:20:43.505Z,70.70
2019-03-04T14:23:12.027Z,69.70
2019-03-04T14:25:40.670Z,69.30
2019-03-04T14:28:09.193Z,69.10
2019-03-04T14:30:37.720Z,68.10
2019-03-04T14:33:06.195Z,68.50
2019-03-04T14:35:34.707Z,68.00
2019-03-04T14:38:22.537Z,68.20
2019-03-04T14:40:51.101Z,68.30
2019-03-04T14:43:19.554Z,68.90
2019-03-04T14:45:48.101Z,69.80
2019-03-04T14:48:18.083Z,70.00
2019-03-04T14:50:46.796Z,70.50
2019-03-04T14:53:15.315Z,71.30
2019-03-04T14:55:43.763Z,71.60
2019-03-04T14:58:12.234Z,72.00
2019-03-04T15:00:44.076Z,72.20
2019-03-04T15:03:20.977Z,72.10
2019-03-04T15:05:43.108Z,72.10
2019-03-04T15:08:11.911Z,72.40
2019-03-04T15:10:40.479Z,72.80
2019-03-04T15:13:10.036Z,72.70
2019-03-04T15:15:38.876Z,72.70
2019-03-04T15:18:07.603Z,73.40
2019-03-04T15:20:36.140Z,72.70
2019-03-04T15:23:05.065Z,73.00
2019-03-04T15:25:57.363Z,72.90
2019-03-04T15:28:27.174Z,72.50
2019-03-04T15:31:05.183Z,72.10
2019-03-04T15:33:33.828Z,71.80
2019-03-04T15:36:02.324Z,71.40
2019-03-04T15:38:30.787Z,71.50
2019-03-04T15:40:59.246Z,71.20
2019-03-04T15:43:27.915Z,71.00
2019-03-04T15:45:58.156Z,71.10
2019-03-04T15:48:28.842Z,71.20
2019-03-04T15:50:57.367Z,71.00
2019-03-04T15:53:26.104Z,71.20
2019-03-04T15:55:54.602Z,70.70
2019-03-04T15:58:23.055Z,70.40
2019-03-04T16:00:51.879Z,70.70
2019-03-04T16:03:20.369Z,70.60
2019-03-04T16:05:48.889Z,70.70
2019-03-04T16:08:17.513Z,70.60
2019-03-04T16:10:46.244Z,70.80
2019-03-04T16:13:14.707Z,71.00
2019-03-04T16:15:46.083Z,71.40
2019-03-04T16:18:14.937Z,71.50
2019-03-04T16:20:43.446Z,71.60
2019-03-04T16:23:11.914Z,71.50
2019-03-04T16:25:40.353Z,71.60
2019-03-04T16:28:11.908Z,71.80
2019-03-04T16:30:40.996Z,71.60
2019-03-04T16:33:09.542Z,71.60
2019-03-04T16:35:38.394Z,71.70
2019-03-04T16:38:06.910Z,71.10
2019-03-04T16:40:36.042Z,70.90
2019-03-04T16:43:04.568Z,70.50
2019-03-04T16:45:33.018Z,70.10
2019-03-04T16:48:01.515Z,70.40
2019-03-04T16:50:41.578Z,69.80
2019-03-04T16:53:16.008Z,70.00
2019-03-04T16:55:44.475Z,70.10
2019-03-04T16:58:13.810Z,70.30
2019-03-04T17:00:42.566Z,70.00
2019-03-04T17:03:11.024Z,70.10
2019-03-04T17:05:39.504Z,70.20
2019-03-04T17:08:08.285Z,70.00
2019-03-04T17:10:37.508Z,69.80
2019-03-04T17:13:06.107Z,69.80
2019-03-04T17:15:34.599Z,69.40
2019-03-04T17:18:03.160Z,69.40
2019-03-04T17:20:31.616Z,69.40
2019-03-04T17:23:00.223Z,69.20
2019-03-04T17:25:28.780Z,68.80
2019-03-04T17:27:57.698Z,69.00
2019-03-04T17:30:27.590Z,68.60
2019-03-04T17:32:57.793Z,68.60
2019-03-04T17:35:26.243Z,68.70
2019-03-04T17:37:54.742Z,68.70
2019-03-04T17:40:24.910Z,68.20
2019-03-04T17:42:53.392Z,67.90
2019-03-04T17:45:24.289Z,68.00
2019-03-04T17:47:53.395Z,67.60
2019-03-04T17:50:36.703Z,67.70
2019-03-04T17:53:10.078Z,67.30
2019-03-04T17:55:38.710Z,66.80
2019-03-04T17:58:07.227Z,66.60
2019-03-04T18:00:37.767Z,66.10
2019-03-04T18:03:06.430Z,66.00
2019-03-04T18:05:35.108Z,65.70
2019-03-04T18:08:03.615Z,65.60
2019-03-04T18:10:32.150Z,65.60
2019-03-04T18:13:03.089Z,65.30
2019-03-04T18:15:37.839Z,64.90
2019-03-04T18:18:06.536Z,64.80
2019-03-04T18:20:35.023Z,64.30
2019-03-04T18:23:03.831Z,63.80
2019-03-04T18:25:41.537Z,63.40
2019-03-04T18:28:31.562Z,63.10
2019-03-04T18:31:11.749Z,62.20
2019-03-04T18:33:49.145Z,62.20
2019-03-04T18:36:23.582Z,61.90
2019-03-04T18:38:57.607Z,61.60
2019-03-04T18:41:48.953Z,62.20
2019-03-04T18:44:40.477Z,61.00
2019-03-04T18:47:29.018Z,60.30
2019-03-04T18:49:57.561Z,58.60
2019-03-04T18:52:26.115Z,58.30
2019-03-04T18:54:54.618Z,56.90
2019-03-04T18:57:23.087Z,56.80
2019-03-04T18:59:51.634Z,56.40
2019-03-04T19:02:20.110Z,55.50
2019-03-04T19:04:48.564Z,55.30
2019-03-04T19:07:17.038Z,54.80
2019-03-04T19:09:45.490Z,54.20
2019-03-04T19:12:13.958Z,53.30
2019-03-04T19:14:42.481Z,53.20
2019-03-04T19:17:11.049Z,53.20
2019-03-04T19:19:39.497Z,53.20
2019-03-04T19:22:08.042Z,53.20
2019-03-04T19:24:36.611Z,52.70
2019-03-04T19:27:05.264Z,52.90
2019-03-04T19:29:33.792Z,53.00
2019-03-04T19:32:02.237Z,52.70
2019-03-04T19:34:30.949Z,52.50
2019-03-04T19:36:59.421Z,52.50
2019-03-04T19:39:27.875Z,51.90
2019-03-04T19:41:57.033Z,51.70
2019-03-04T19:44:25.563Z,51.50
2019-03-04T19:46:54.252Z,51.50
2019-03-04T19:49:22.714Z,51.60
2019-03-04T19:51:51.176Z,51.40
2019-03-04T19:54:19.642Z,51.50
2019-03-04T19:56:48.176Z,51.80
2019-03-04T19:59:16.711Z,51.40
2019-03-04T20:01:45.233Z,51.30
2019-03-04T20:04:13.730Z,51.40
2019-03-04T20:06:42.263Z,51.50
2019-03-04T20:09:10.946Z,51.60
2019-03-04T20:11:39.483Z,51.80
2019-03-04T20:14:08.090Z,51.80
2019-03-04T20:16:36.773Z,51.70
2019-03-04T20:19:05.294Z,51.90
2019-03-04T20:21:34.116Z,51.90
2019-03-04T20:24:02.598Z,51.90
2019-03-04T20:26:31.084Z,52.10
2019-03-04T20:28:59.908Z,52.40
2019-03-04T20:31:28.370Z,52.40
2019-03-04T20:33:56.909Z,52.70
2019-03-04T20:36:25.984Z,52.70
2019-03-04T20:38:54.765Z,52.70
2019-03-04T20:41:23.251Z,52.70
2019-03-04T20:43:51.794Z,52.60
2019-03-04T20:46:20.362Z,53.50
2019-03-04T20:48:48.831Z,53.60
2019-03-04T20:51:17.815Z,53.80
2019-03-04T20:53:46.293Z,54.00
2019-03-04T20:56:14.744Z,54.30
2019-03-04T20:58:43.574Z,54.20
2019-03-04T21:01:12.563Z,54.50
2019-03-04T21:03:41.092Z,54.50
2019-03-04T21:06:09.612Z,54.80
2019-03-04T21:08:38.075Z,55.00
2019-03-04T21:11:06.555Z,55.10
2019-03-04T21:13:36.096Z,55.40
2019-03-04T21:16:10.739Z,55.70
2019-03-04T21:18:39.559Z,55.80
2019-03-04T21:21:08.560Z,56.10
2019-03-04T21:23:37.047Z,56.60
2019-03-04T21:26:08.636Z,56.70
2019-03-04T21:28:55.499Z,56.70
2019-03-04T21:31:29.945Z,57.10
2019-03-04T21:34:11.376Z,57.50
2019-03-04T21:37:01.230Z,57.80
2019-03-04T21:39:36.950Z,58.00
2019-03-04T21:42:11.471Z,58.20
2019-03-04T21:44:55.023Z,58.50
2019-03-04T21:47:26.949Z,58.60
2019-03-04T21:49:55.670Z,58.70
2019-03-04T21:52:39.683Z,59.10
2019-03-04T21:55:17.229Z,58.30
2019-03-04T21:57:48.772Z,58.40
2019-03-04T22:00:22.388Z,58.20
2019-03-04T22:02:53.991Z,58.00
2019-03-04T22:05:22.510Z,58.00
2019-03-04T22:07:51.442Z,57.90
2019-03-04T22:10:19.914Z,58.00
2019-03-04T22:12:48.550Z,57.70
2019-03-04T22:15:17.696Z,57.80
2019-03-04T22:17:46.362Z,57.70
2019-03-04T22:20:18.011Z,57.80
2019-03-04T22:22:46.631Z,57.60
2019-03-04T22:25:15.407Z,57.80
2019-03-04T22:27:43.936Z,57.80
2019-03-04T22:30:15.564Z,57.80
2019-03-04T22:32:44.330Z,58.00
2019-03-04T22:35:17.384Z,58.60
2019-03-04T22:37:46.509Z,58.10
2019-03-04T22:40:20.326Z,58.20
2019-03-04T22:42:48.825Z,58.20
2019-03-04T22:45:19.285Z,57.90
2019-03-04T22:47:49.541Z,58.10
2019-03-04T22:50:22.772Z,58.50
2019-03-04T22:52:51.644Z,58.80
2019-03-04T22:55:23.595Z,58.80
2019-03-04T22:57:52.119Z,58.90
2019-03-04T23:00:54.003Z,59.40
2019-03-04T23:03:25.345Z,60.70
2019-03-04T23:06:14.746Z,64.70
2019-03-04T23:08:43.221Z,67.80
2019-03-04T23:11:11.961Z,70.80
2019-03-04T23:13:52.527Z,73.30
2019-03-04T23:16:26.760Z,75.50
2019-03-04T23:18:55.499Z,78.10
2019-03-04T23:21:24.250Z,79.50
2019-03-04T23:23:52.836Z,81.10
2019-03-04T23:26:21.296Z,82.80
2019-03-04T23:28:49.747Z,85.80
2019-03-04T23:31:18.198Z,86.40
2019-03-04T23:33:46.723Z,88.10
2019-03-04T23:36:15.223Z,89.20
2019-03-04T23:38:43.762Z,89.90
2019-03-04T23:41:14.229Z,90.80
2019-03-04T23:43:49.919Z,90.30
2019-03-04T23:46:18.374Z,88.40
2019-03-04T23:48:46.836Z,86.50
2019-03-04T23:51:15.295Z,86.50
2019-03-04T23:53:43.987Z,86.50
2019-03-04T23:56:12.851Z,86.80
2019-03-04T23:58:41.370Z,87.60
